createdAt,value
2022-09-12T00:03:03.452Z,96.60
2022-09-12T00:08:06.539Z,94.64
2022-09-12T00:13:12.767Z,93.81
2022-09-12T00:18:18.390Z,93.68
2022-09-12T00:23:21.405Z,93.09
2022-09-12T00:28:24.389Z,93.57
2022-09-12T00:33:29.073Z,94.80
2022-09-12T00:38:32.515Z,92.75
2022-09-12T00:43:39.095Z,94.18
2022-09-12T00:48:51.404Z,95.63
2022-09-12T00:53:56.603Z,94.28
2022-09-12T00:59:03.901Z,93.92
2022-09-12T01:04:09.603Z,93.18
2022-09-12T01:09:16.693Z,94.47
2022-09-12T01:14:20.965Z,94.04
2022-09-12T01:20:05.706Z,97.88
2022-09-12T01:25:21.394Z,99.84
2022-09-12T01:30:45.382Z,100.00
2022-09-12T01:35:56.834Z,99.04
2022-09-12T01:41:11.704Z,100.00
2022-09-12T01:46:18.548Z,100.00
2022-09-12T01:51:26.269Z,100.00
2022-09-12T01:56:32.863Z,100.00
2022-09-12T02:01:42.414Z,100.00
2022-09-12T02:06:50.072Z,100.00
2022-09-12T02:11:58.510Z,100.00
2022-09-12T02:17:09.088Z,100.00
2022-09-12T02:22:17.105Z,100.00
2022-09-12T02:27:24.762Z,100.00
2022-09-12T02:32:35.876Z,100.00
2022-09-12T02:37:58.984Z,100.00
2022-09-12T02:43:03.080Z,100.00
2022-09-12T02:48:16.037Z,100.00
2022-09-12T02:53:19.652Z,100.00
2022-09-12T02:58:28.378Z,100.00
2022-09-12T03:03:51.793Z,100.00
2022-09-12T03:09:04.832Z,100.00
2022-09-12T03:14:21.510Z,100.00
2022-09-12T03:19:34.557Z,100.00
2022-09-12T03:24:44.087Z,100.00
2022-09-12T03:29:49.013Z,100.00
2022-09-12T03:34:53.261Z,100.00
2022-09-12T03:39:56.274Z,100.00
2022-09-12T03:44:59.257Z,100.00
2022-09-12T03:50:03.824Z,100.00
2022-09-12T03:55:07.925Z,100.00
2022-09-12T04:00:15.309Z,100.00
2022-09-12T04:05:21.998Z,97.33
2022-09-12T04:10:25.015Z,97.92
2022-09-12T04:15:27.890Z,98.33
2022-09-12T04:20:32.421Z,98.61
2022-09-12T04:25:35.412Z,97.43
2022-09-12T04:30:39.559Z,99.76
2022-09-12T04:35:45.372Z,98.52
2022-09-12T04:40:48.305Z,97.29
2022-09-12T04:45:51.987Z,96.92
2022-09-12T04:50:56.428Z,98.53
2022-09-12T04:56:03.889Z,100.00
2022-09-12T05:01:08.302Z,100.00
2022-09-12T05:06:15.074Z,100.00
2022-09-12T05:11:24.556Z,99.37
2022-09-12T05:16:29.876Z,100.00
2022-09-12T05:21:35.607Z,100.00
2022-09-12T05:26:40.857Z,100.00
2022-09-12T05:31:43.848Z,100.00
2022-09-12T05:36:48.417Z,100.00
2022-09-12T05:41:51.420Z,99.52
2022-09-12T05:46:54.349Z,96.98
2022-09-12T05:51:58.649Z,98.04
2022-09-12T05:57:01.675Z,98.66
2022-09-12T06:02:04.861Z,97.21
2022-09-12T06:07:09.243Z,98.92
2022-09-12T06:12:12.371Z,99.61
2022-09-12T06:17:15.377Z,98.48
2022-09-12T06:22:19.966Z,98.94
2022-09-12T06:27:22.926Z,98.85
2022-09-12T06:32:25.943Z,98.88
2022-09-12T06:37:30.444Z,100.00
2022-09-12T06:42:33.975Z,100.00
2022-09-12T06:47:39.629Z,100.00
2022-09-12T06:52:44.431Z,100.00
2022-09-12T06:57:47.347Z,100.00
2022-09-12T07:02:50.287Z,99.76
2022-09-12T07:07:54.598Z,99.98
2022-09-12T07:12:57.532Z,100.00
2022-09-12T07:18:00.405Z,100.00
2022-09-12T07:23:04.832Z,100.00
2022-09-12T07:28:07.827Z,100.00
2022-09-12T07:33:10.898Z,100.00
2022-09-12T07:38:15.191Z,100.00
2022-09-12T07:43:18.215Z,100.00
2022-09-12T07:48:21.475Z,100.00
2022-09-12T07:53:25.936Z,100.00
2022-09-12T07:58:28.911Z,100.00
2022-09-12T08:03:31.853Z,100.00
2022-09-12T08:08:40.014Z,100.00
2022-09-12T08:13:44.381Z,100.00
2022-09-12T08:18:47.629Z,99.80
2022-09-12T08:23:55.197Z,98.24
2022-09-12T08:28:58.635Z,99.05
2022-09-12T08:34:01.666Z,99.87
2022-09-12T08:39:07.847Z,98.08
2022-09-12T08:44:46.378Z,96.62
2022-09-12T08:50:00.552Z,95.42
2022-09-12T08:55:08.122Z,93.88
2022-09-12T09:00:15.853Z,91.56
2022-09-12T09:05:24.608Z,90.91
2022-09-12T09:10:41.048Z,88.71
2022-09-12T09:15:58.476Z,86.57
2022-09-12T09:21:07.838Z,85.34
2022-09-12T09:26:16.545Z,83.81
2022-09-12T09:31:22.691Z,82.81
2022-09-12T09:36:39.390Z,82.11
2022-09-12T09:41:57.007Z,77.97
2022-09-12T09:47:01.474Z,78.72
2022-09-12T09:52:07.216Z,79.31
2022-09-12T09:57:46.730Z,77.28
2022-09-12T10:03:02.510Z,76.74
2022-09-12T10:08:08.150Z,75.89
2022-09-12T10:13:26.044Z,75.33
2022-09-12T10:18:40.851Z,70.81
2022-09-12T10:23:45.044Z,72.32
2022-09-12T10:28:53.533Z,71.22
2022-09-12T10:33:58.518Z,70.41
2022-09-12T10:39:03.660Z,68.59
2022-09-12T10:44:15.124Z,66.27
2022-09-12T10:49:24.574Z,66.83
2022-09-12T10:54:32.447Z,67.62
2022-09-12T10:59:58.331Z,66.33
2022-09-12T11:05:11.574Z,65.10
2022-09-12T11:10:24.638Z,65.97
2022-09-12T11:15:41.691Z,64.37
2022-09-12T11:20:57.161Z,61.98
2022-09-12T11:26:09.083Z,63.61
2022-09-12T11:31:45.385Z,61.71
2022-09-12T11:37:07.415Z,64.03
2022-09-12T11:42:19.783Z,62.54
2022-09-12T11:47:26.470Z,64.05
2022-09-12T11:52:41.253Z,60.70
2022-09-12T11:57:50.061Z,63.56
2022-09-12T12:03:04.673Z,62.42
2022-09-12T12:08:09.595Z,61.26
2022-09-12T12:13:20.888Z,59.75
2022-09-12T12:18:27.271Z,62.36
2022-09-12T12:23:33.449Z,60.43
2022-09-12T12:29:01.215Z,63.28
2022-09-12T12:34:28.824Z,64.42
2022-09-12T12:40:01.099Z,61.13
2022-09-12T12:45:25.571Z,60.80
2022-09-12T12:50:32.031Z,63.15
2022-09-12T12:55:39.213Z,64.70
2022-09-12T13:00:42.329Z,62.66
2022-09-12T13:05:49.955Z,60.14
2022-09-12T13:10:57.078Z,62.87
2022-09-12T13:16:00.357Z,66.12
2022-09-12T13:21:11.319Z,60.80
2022-09-12T13:26:23.293Z,63.60
2022-09-12T13:31:30.220Z,61.21
2022-09-12T13:37:05.937Z,59.00
2022-09-12T13:42:39.100Z,61.63
2022-09-12T13:47:44.593Z,60.76
2022-09-12T13:52:53.354Z,61.98
2022-09-12T13:58:02.061Z,61.53
2022-09-12T14:03:43.568Z,58.13
2022-09-12T14:08:48.838Z,63.21
2022-09-12T14:13:52.894Z,61.70
2022-09-12T14:18:56.586Z,61.07
2022-09-12T14:24:01.875Z,62.05
2022-09-12T14:29:13.220Z,60.26
2022-09-12T14:34:20.514Z,61.85
2022-09-12T14:39:31.000Z,61.05
2022-09-12T14:44:35.167Z,60.18
2022-09-12T14:49:39.197Z,61.04
2022-09-12T14:54:44.543Z,60.60
2022-09-12T14:59:47.825Z,57.41
2022-09-12T15:04:52.799Z,58.68
2022-09-12T15:09:57.448Z,58.59
2022-09-12T15:15:07.964Z,57.80
2022-09-12T15:20:11.859Z,58.24
2022-09-12T15:25:16.395Z,57.10
2022-09-12T15:30:19.448Z,56.00
2022-09-12T15:35:25.153Z,57.06
2022-09-12T15:40:29.588Z,57.47
2022-09-12T15:45:34.809Z,55.88
2022-09-12T15:50:37.878Z,57.52
2022-09-12T15:55:42.600Z,57.97
2022-09-12T16:00:45.774Z,56.28
2022-09-12T16:05:49.006Z,59.54
2022-09-12T16:10:57.056Z,59.30
2022-09-12T16:16:01.434Z,60.53
2022-09-12T16:21:04.396Z,60.25
2022-09-12T16:26:08.840Z,59.42
2022-09-12T16:31:14.076Z,60.70
2022-09-12T16:36:19.176Z,61.72
2022-09-12T16:41:26.413Z,62.14
2022-09-12T16:46:29.783Z,61.49
2022-09-12T16:51:36.037Z,60.60
2022-09-12T16:56:40.412Z,61.92
2022-09-12T17:01:45.319Z,62.47
2022-09-12T17:06:48.347Z,63.05
2022-09-12T17:11:53.269Z,63.06
2022-09-12T17:16:56.960Z,64.73
2022-09-12T17:22:00.187Z,64.92
2022-09-12T17:27:04.997Z,64.20
2022-09-12T17:32:08.026Z,64.39
2022-09-12T17:37:11.072Z,65.57
2022-09-12T17:42:15.558Z,66.59
2022-09-12T17:47:18.496Z,68.18
2022-09-12T17:52:21.797Z,68.82
2022-09-12T17:57:26.262Z,70.19
2022-09-12T18:02:32.952Z,70.98
2022-09-12T18:07:38.955Z,70.75
2022-09-12T18:12:47.182Z,71.02
2022-09-12T18:17:50.197Z,71.62
2022-09-12T18:22:53.216Z,73.13
2022-09-12T18:27:57.714Z,74.19
2022-09-12T18:33:00.816Z,74.47
2022-09-12T18:38:03.746Z,74.69
2022-09-12T18:43:08.308Z,75.04
2022-09-12T18:48:11.266Z,76.11
2022-09-12T18:53:14.955Z,77.58
2022-09-12T18:58:19.610Z,78.18
2022-09-12T19:03:22.603Z,79.08
2022-09-12T19:08:25.524Z,80.27
2022-09-12T19:13:30.301Z,80.73
2022-09-12T19:18:34.078Z,81.95
2022-09-12T19:23:37.598Z,82.44
2022-09-12T19:28:42.400Z,83.50
2022-09-12T19:33:45.726Z,83.91
2022-09-12T19:38:48.797Z,84.08
2022-09-12T19:43:53.121Z,83.88
2022-09-12T19:48:56.331Z,83.67
2022-09-12T19:53:59.578Z,84.63
2022-09-12T19:59:04.618Z,85.11
2022-09-12T20:04:07.998Z,85.10
2022-09-12T20:09:11.062Z,85.19
2022-09-12T20:14:15.631Z,86.03
2022-09-12T20:19:18.789Z,86.97
2022-09-12T20:24:21.793Z,87.74
2022-09-12T20:29:26.183Z,87.96
2022-09-12T20:34:29.174Z,88.36
2022-09-12T20:39:32.751Z,88.47
2022-09-12T20:44:37.061Z,88.55
2022-09-12T20:49:43.553Z,89.77
2022-09-12T20:54:46.533Z,90.52
2022-09-12T20:59:51.197Z,90.06
2022-09-12T21:04:54.231Z,90.95
2022-09-12T21:09:57.300Z,90.44
2022-09-12T21:15:03.869Z,90.42
2022-09-12T21:20:11.245Z,90.71
2022-09-12T21:25:14.772Z,92.86
2022-09-12T21:30:19.517Z,91.87
2022-09-12T21:35:22.569Z,91.57
2022-09-12T21:40:25.638Z,92.13
2022-09-12T21:45:30.429Z,92.56
2022-09-12T21:50:33.464Z,91.97
2022-09-12T21:55:36.463Z,91.47
2022-09-12T22:00:41.545Z,93.23
2022-09-12T22:05:44.656Z,92.91
2022-09-12T22:10:47.579Z,93.64
2022-09-12T22:15:55.045Z,92.11
2022-09-12T22:21:02.760Z,92.04
2022-09-12T22:26:05.755Z,91.04
2022-09-12T22:31:12.649Z,90.64
2022-09-12T22:36:15.901Z,90.95
2022-09-12T22:41:18.877Z,91.48
2022-09-12T22:46:23.909Z,92.20
2022-09-12T22:51:27.391Z,93.93
2022-09-12T22:56:30.317Z,93.13
2022-09-12T23:01:35.428Z,93.95
2022-09-12T23:06:40.042Z,92.63
2022-09-12T23:11:42.970Z,92.51
2022-09-12T23:16:47.300Z,92.80
2022-09-12T23:21:50.236Z,92.61
2022-09-12T23:26:53.179Z,91.63
2022-09-12T23:31:57.412Z,93.50
2022-09-12T23:37:00.485Z,93.88
2022-09-12T23:42:03.532Z,94.85
2022-09-12T23:47:07.937Z,95.40
2022-09-12T23:52:10.885Z,94.12
2022-09-12T23:57:13.879Z,91.82
